Startpagina
METAR-TAF:

METAR-TAF

Vliegvelden :

Aeropuerto Almirante Padilla

Riohacha, Colombia

breedte: 11-32N, lengte: 072-56W, hoogte: 4 m

Actueel weer

Dit bericht is 2 uur en het 40 minuten geleden gemaakt, om 00:00 UTC
Wind 14 kt uit het oostzuidoosten
Temperatuur 31°C
Vochtigheid 59%
Druk 1011 hPa
Zicht 10 km of meer
Weinig wolken op 1500 ft
Gebroken wolken op 20000 ft

METAR: SKRH 170000Z 11014KT 9999 FEW015 BKN200 31/22 A2984

Tijdstip: 21:40 (02:40 UTC)


TAF: ontbreekt

Waarnemingen en weersverwachtingen van meer dan 4000 vliegvelden (METAR en TAF).

De beschikbare stations zijn de gele en rode punten op de kaart.

Ga met uw muis naar het station om de naam te zien.

Klik dan om waarnemingen en weersverwachtingen te zien.

kaart wijzigen: klik op de groene knoppen met een zwart kruis om in te zoomen, op de groene knop met een streepje om uit te zoomen of op de groene pijlen voor aangrenzende kaarten.


METAR-TAF: